sensor_id;sensor_type;location;lat;lon;timestamp;P1;durP1;ratioP1;P2;durP2;ratioP2
18772;SDS011;9515;50.810;4.418;2022-09-06T00:00:06;7.80;;;6.72;;
18772;SDS011;9515;50.810;4.418;2022-09-06T00:02:40;7.22;;;6.55;;
18772;SDS011;9515;50.810;4.418;2022-09-06T00:05:07;7.72;;;6.25;;
18772;SDS011;9515;50.810;4.418;2022-09-06T00:07:34;7.55;;;6.30;;
18772;SDS011;9515;50.810;4.418;2022-09-06T00:10:00;6.65;;;6.05;;
18772;SDS011;9515;50.810;4.418;2022-09-06T00:12:26;9.13;;;6.32;;
18772;SDS011;9515;50.810;4.418;2022-09-06T00:14:52;8.82;;;6.53;;
18772;SDS011;9515;50.810;4.418;2022-09-06T00:17:18;6.40;;;5.80;;
18772;SDS011;9515;50.810;4.418;2022-09-06T00:19:44;6.63;;;5.95;;
18772;SDS011;9515;50.810;4.418;2022-09-06T00:22:10;8.30;;;5.50;;
18772;SDS011;9515;50.810;4.418;2022-09-06T00:24:35;6.47;;;5.35;;
18772;SDS011;9515;50.810;4.418;2022-09-06T00:27:05;7.80;;;5.55;;
18772;SDS011;9515;50.810;4.418;2022-09-06T00:29:32;10.77;;;5.80;;
18772;SDS011;9515;50.810;4.418;2022-09-06T00:31:58;7.05;;;5.43;;
18772;SDS011;9515;50.810;4.418;2022-09-06T00:34:24;5.80;;;5.30;;
18772;SDS011;9515;50.810;4.418;2022-09-06T00:36:50;6.32;;;5.20;;
18772;SDS011;9515;50.810;4.418;2022-09-06T00:39:16;9.57;;;5.38;;
18772;SDS011;9515;50.810;4.418;2022-09-06T00:41:42;6.07;;;4.93;;
18772;SDS011;9515;50.810;4.418;2022-09-06T00:44:07;5.68;;;4.95;;
18772;SDS011;9515;50.810;4.418;2022-09-06T00:46:33;4.97;;;4.57;;
18772;SDS011;9515;50.810;4.418;2022-09-06T00:49:05;7.88;;;5.55;;
18772;SDS011;9515;50.810;4.418;2022-09-06T00:51:34;6.70;;;4.90;;
18772;SDS011;9515;50.810;4.418;2022-09-06T00:54:05;5.72;;;5.05;;
18772;SDS011;9515;50.810;4.418;2022-09-06T00:56:32;4.85;;;4.45;;
18772;SDS011;9515;50.810;4.418;2022-09-06T00:59:01;5.97;;;4.55;;
18772;SDS011;9515;50.810;4.418;2022-09-06T01:01:28;5.75;;;4.47;;
18772;SDS011;9515;50.810;4.418;2022-09-06T01:03:53;5.60;;;4.50;;
18772;SDS011;9515;50.810;4.418;2022-09-06T01:06:21;7.25;;;4.60;;
18772;SDS011;9515;50.810;4.418;2022-09-06T01:19:27;5.20;;;4.68;;
18772;SDS011;9515;50.810;4.418;2022-09-06T01:25:10;6.20;;;4.95;;
18772;SDS011;9515;50.810;4.418;2022-09-06T01:28:32;7.70;;;4.78;;
18772;SDS011;9515;50.810;4.418;2022-09-06T01:31:39;5.78;;;4.68;;
18772;SDS011;9515;50.810;4.418;2022-09-06T01:33:47;5.38;;;4.55;;
18772;SDS011;9515;50.810;4.418;2022-09-06T01:36:21;6.38;;;4.68;;
18772;SDS011;9515;50.810;4.418;2022-09-06T01:38:51;5.72;;;4.82;;
18772;SDS011;9515;50.810;4.418;2022-09-06T01:41:16;5.00;;;4.60;;
18772;SDS011;9515;50.810;4.418;2022-09-06T01:43:42;7.63;;;4.95;;
18772;SDS011;9515;50.810;4.418;2022-09-06T01:46:14;7.50;;;4.97;;
18772;SDS011;9515;50.810;4.418;2022-09-06T01:55:37;5.47;;;4.75;;
18772;SDS011;9515;50.810;4.418;2022-09-06T02:00:43;6.25;;;4.90;;
18772;SDS011;9515;50.810;4.418;2022-09-06T02:06:23;5.10;;;4.63;;
18772;SDS011;9515;50.810;4.418;2022-09-06T02:08:54;5.65;;;5.07;;
18772;SDS011;9515;50.810;4.418;2022-09-06T02:11:38;5.55;;;5.05;;
18772;SDS011;9515;50.810;4.418;2022-09-06T02:14:18;4.88;;;4.47;;
18772;SDS011;9515;50.810;4.418;2022-09-06T02:16:49;5.75;;;4.57;;
18772;SDS011;9515;50.810;4.418;2022-09-06T02:22:11;5.53;;;4.45;;
18772;SDS011;9515;50.810;4.418;2022-09-06T02:24:41;5.68;;;5.13;;
18772;SDS011;9515;50.810;4.418;2022-09-06T02:27:10;5.22;;;4.72;;
18772;SDS011;9515;50.810;4.418;2022-09-06T02:29:36;10.20;;;5.70;;
18772;SDS011;9515;50.810;4.418;2022-09-06T02:34:35;5.80;;;5.30;;
18772;SDS011;9515;50.810;4.418;2022-09-06T02:37:03;6.93;;;5.75;;
18772;SDS011;9515;50.810;4.418;2022-09-06T02:39:30;8.13;;;6.18;;
18772;SDS011;9515;50.810;4.418;2022-09-06T02:41:55;7.38;;;6.35;;
18772;SDS011;9515;50.810;4.418;2022-09-06T02:44:22;7.53;;;6.72;;
18772;SDS011;9515;50.810;4.418;2022-09-06T02:46:48;7.65;;;5.93;;
18772;SDS011;9515;50.810;4.418;2022-09-06T02:49:14;8.02;;;7.00;;
18772;SDS011;9515;50.810;4.418;2022-09-06T02:51:39;7.93;;;7.10;;
18772;SDS011;9515;50.810;4.418;2022-09-06T02:54:05;9.88;;;7.15;;
18772;SDS011;9515;50.810;4.418;2022-09-06T02:56:31;9.57;;;7.25;;
18772;SDS011;9515;50.810;4.418;2022-09-06T02:58:58;7.65;;;6.97;;
18772;SDS011;9515;50.810;4.418;2022-09-06T03:01:24;7.68;;;6.90;;
18772;SDS011;9515;50.810;4.418;2022-09-06T03:03:50;8.85;;;7.95;;
18772;SDS011;9515;50.810;4.418;2022-09-06T03:06:16;11.02;;;8.27;;
18772;SDS011;9515;50.810;4.418;2022-09-06T03:08:41;9.45;;;8.50;;
18772;SDS011;9515;50.810;4.418;2022-09-06T03:11:07;9.75;;;8.75;;
18772;SDS011;9515;50.810;4.418;2022-09-06T03:13:33;11.18;;;9.55;;
18772;SDS011;9515;50.810;4.418;2022-09-06T03:15:58;12.93;;;9.32;;
18772;SDS011;9515;50.810;4.418;2022-09-06T03:18:26;12.85;;;9.48;;
18772;SDS011;9515;50.810;4.418;2022-09-06T03:20:54;13.02;;;10.00;;
18772;SDS011;9515;50.810;4.418;2022-09-06T03:23:20;13.50;;;9.98;;
18772;SDS011;9515;50.810;4.418;2022-09-06T03:25:48;15.25;;;10.45;;
18772;SDS011;9515;50.810;4.418;2022-09-06T03:28:14;11.13;;;9.95;;
18772;SDS011;9515;50.810;4.418;2022-09-06T03:30:43;11.23;;;10.23;;
18772;SDS011;9515;50.810;4.418;2022-09-06T03:33:09;11.02;;;9.90;;
18772;SDS011;9515;50.810;4.418;2022-09-06T03:35:35;15.93;;;10.75;;
18772;SDS011;9515;50.810;4.418;2022-09-06T03:38:01;11.05;;;9.93;;
18772;SDS011;9515;50.810;4.418;2022-09-06T03:40:26;11.50;;;10.13;;
18772;SDS011;9515;50.810;4.418;2022-09-06T03:42:52;13.32;;;10.40;;
18772;SDS011;9515;50.810;4.418;2022-09-06T03:45:18;11.10;;;9.90;;
18772;SDS011;9515;50.810;4.418;2022-09-06T03:47:43;11.57;;;9.85;;
18772;SDS011;9515;50.810;4.418;2022-09-06T03:50:09;11.68;;;10.23;;
18772;SDS011;9515;50.810;4.418;2022-09-06T03:52:35;10.90;;;9.85;;
18772;SDS011;9515;50.810;4.418;2022-09-06T03:55:00;11.60;;;9.57;;
18772;SDS011;9515;50.810;4.418;2022-09-06T03:57:27;10.63;;;9.63;;
18772;SDS011;9515;50.810;4.418;2022-09-06T03:59:53;14.85;;;9.82;;
18772;SDS011;9515;50.810;4.418;2022-09-06T04:02:18;11.55;;;9.65;;
18772;SDS011;9515;50.810;4.418;2022-09-06T04:04:44;10.30;;;9.13;;
18772;SDS011;9515;50.810;4.418;2022-09-06T04:07:10;11.73;;;9.98;;
18772;SDS011;9515;50.810;4.418;2022-09-06T04:09:36;15.48;;;9.98;;
18772;SDS011;9515;50.810;4.418;2022-09-06T04:12:02;12.27;;;9.52;;
18772;SDS011;9515;50.810;4.418;2022-09-06T04:14:28;11.05;;;9.75;;
18772;SDS011;9515;50.810;4.418;2022-09-06T04:16:54;10.38;;;9.18;;
18772;SDS011;9515;50.810;4.418;2022-09-06T04:19:19;10.48;;;9.40;;
18772;SDS011;9515;50.810;4.418;2022-09-06T04:21:45;11.35;;;9.15;;
18772;SDS011;9515;50.810;4.418;2022-09-06T04:24:10;11.68;;;9.55;;
18772;SDS011;9515;50.810;4.418;2022-09-06T04:26:36;11.88;;;9.18;;
18772;SDS011;9515;50.810;4.418;2022-09-06T04:29:02;10.20;;;9.20;;
18772;SDS011;9515;50.810;4.418;2022-09-06T04:31:28;10.70;;;9.48;;
18772;SDS011;9515;50.810;4.418;2022-09-06T04:33:54;11.80;;;9.18;;
18772;SDS011;9515;50.810;4.418;2022-09-06T04:36:19;13.23;;;10.05;;
18772;SDS011;9515;50.810;4.418;2022-09-06T04:38:45;13.07;;;10.38;;
18772;SDS011;9515;50.810;4.418;2022-09-06T04:41:12;11.43;;;9.80;;
18772;SDS011;9515;50.810;4.418;2022-09-06T04:43:39;12.90;;;9.93;;
18772;SDS011;9515;50.810;4.418;2022-09-06T04:46:20;12.38;;;10.30;;
18772;SDS011;9515;50.810;4.418;2022-09-06T04:48:49;12.30;;;10.05;;
18772;SDS011;9515;50.810;4.418;2022-09-06T04:51:16;15.73;;;11.18;;
18772;SDS011;9515;50.810;4.418;2022-09-06T04:53:42;11.25;;;9.95;;
18772;SDS011;9515;50.810;4.418;2022-09-06T04:56:10;12.95;;;9.98;;
18772;SDS011;9515;50.810;4.418;2022-09-06T04:58:39;11.45;;;10.35;;
18772;SDS011;9515;50.810;4.418;2022-09-06T05:01:06;11.95;;;10.10;;
18772;SDS011;9515;50.810;4.418;2022-09-06T05:03:31;10.70;;;9.63;;
18772;SDS011;9515;50.810;4.418;2022-09-06T05:06:06;11.70;;;9.95;;
18772;SDS011;9515;50.810;4.418;2022-09-06T05:11:25;9.65;;;8.65;;
18772;SDS011;9515;50.810;4.418;2022-09-06T05:17:13;11.38;;;8.27;;
18772;SDS011;9515;50.810;4.418;2022-09-06T05:19:39;10.43;;;9.20;;
18772;SDS011;9515;50.810;4.418;2022-09-06T05:22:05;12.55;;;8.93;;
18772;SDS011;9515;50.810;4.418;2022-09-06T05:24:31;10.85;;;7.93;;
18772;SDS011;9515;50.810;4.418;2022-09-06T05:26:56;11.48;;;8.30;;
18772;SDS011;9515;50.810;4.418;2022-09-06T05:29:22;58.60;;;12.40;;
18772;SDS011;9515;50.810;4.418;2022-09-06T05:31:48;82.95;;;15.15;;
18772;SDS011;9515;50.810;4.418;2022-09-06T05:34:14;41.15;;;11.02;;
18772;SDS011;9515;50.810;4.418;2022-09-06T05:36:39;20.60;;;8.45;;
18772;SDS011;9515;50.810;4.418;2022-09-06T05:39:06;10.00;;;6.38;;
18772;SDS011;9515;50.810;4.418;2022-09-06T05:41:32;10.07;;;7.13;;
18772;SDS011;9515;50.810;4.418;2022-09-06T05:43:58;7.65;;;6.90;;
18772;SDS011;9515;50.810;4.418;2022-09-06T05:46:24;8.43;;;6.15;;
18772;SDS011;9515;50.810;4.418;2022-09-06T05:48:56;8.00;;;5.55;;
18772;SDS011;9515;50.810;4.418;2022-09-06T05:51:28;6.43;;;5.32;;
18772;SDS011;9515;50.810;4.418;2022-09-06T05:53:55;6.47;;;5.72;;
18772;SDS011;9515;50.810;4.418;2022-09-06T05:56:20;23.17;;;6.97;;
18772;SDS011;9515;50.810;4.418;2022-09-06T05:58:46;18.02;;;6.65;;
18772;SDS011;9515;50.810;4.418;2022-09-06T06:01:18;17.35;;;5.07;;
18772;SDS011;9515;50.810;4.418;2022-09-06T06:03:49;7.70;;;4.75;;
18772;SDS011;9515;50.810;4.418;2022-09-06T06:06:16;9.07;;;4.70;;
18772;SDS011;9515;50.810;4.418;2022-09-06T06:08:43;26.60;;;6.57;;
18772;SDS011;9515;50.810;4.418;2022-09-06T06:11:09;66.60;;;10.80;;
18772;SDS011;9515;50.810;4.418;2022-09-06T06:13:34;11.13;;;4.45;;
18772;SDS011;9515;50.810;4.418;2022-09-06T06:16:03;6.30;;;3.55;;
18772;SDS011;9515;50.810;4.418;2022-09-06T06:18:30;5.63;;;3.58;;
18772;SDS011;9515;50.810;4.418;2022-09-06T06:23:37;7.65;;;3.70;;
18772;SDS011;9515;50.810;4.418;2022-09-06T06:26:03;12.23;;;3.95;;
18772;SDS011;9515;50.810;4.418;2022-09-06T06:28:29;5.50;;;3.50;;
18772;SDS011;9515;50.810;4.418;2022-09-06T06:30:56;9.35;;;3.38;;
18772;SDS011;9515;50.810;4.418;2022-09-06T06:33:21;5.88;;;3.08;;
18772;SDS011;9515;50.810;4.418;2022-09-06T06:38:47;5.20;;;3.28;;
18772;SDS011;9515;50.810;4.418;2022-09-06T06:41:15;5.22;;;2.50;;
18772;SDS011;9515;50.810;4.418;2022-09-06T06:43:42;2.72;;;2.10;;
18772;SDS011;9515;50.810;4.418;2022-09-06T06:46:09;3.03;;;2.42;;
18772;SDS011;9515;50.810;4.418;2022-09-06T06:48:37;2.75;;;2.20;;
18772;SDS011;9515;50.810;4.418;2022-09-06T06:51:07;2.92;;;2.60;;
18772;SDS011;9515;50.810;4.418;2022-09-06T06:53:40;3.75;;;2.05;;
18772;SDS011;9515;50.810;4.418;2022-09-06T06:56:14;3.58;;;2.60;;
18772;SDS011;9515;50.810;4.418;2022-09-06T06:58:43;3.30;;;2.10;;
18772;SDS011;9515;50.810;4.418;2022-09-06T07:01:10;3.38;;;2.08;;
18772;SDS011;9515;50.810;4.418;2022-09-06T07:03:37;4.28;;;2.13;;
18772;SDS011;9515;50.810;4.418;2022-09-06T07:06:03;3.95;;;2.10;;
18772;SDS011;9515;50.810;4.418;2022-09-06T07:08:29;3.83;;;2.10;;
18772;SDS011;9515;50.810;4.418;2022-09-06T07:10:55;5.32;;;2.15;;
18772;SDS011;9515;50.810;4.418;2022-09-06T07:13:20;3.00;;;1.98;;
18772;SDS011;9515;50.810;4.418;2022-09-06T07:15:46;3.85;;;2.38;;
18772;SDS011;9515;50.810;4.418;2022-09-06T07:18:14;3.53;;;2.70;;
18772;SDS011;9515;50.810;4.418;2022-09-06T07:20:40;3.92;;;2.38;;
18772;SDS011;9515;50.810;4.418;2022-09-06T07:23:05;2.95;;;2.42;;
18772;SDS011;9515;50.810;4.418;2022-09-06T07:25:31;4.43;;;2.72;;
18772;SDS011;9515;50.810;4.418;2022-09-06T07:28:01;6.50;;;2.67;;
18772;SDS011;9515;50.810;4.418;2022-09-06T07:30:31;3.47;;;2.20;;
18772;SDS011;9515;50.810;4.418;2022-09-06T07:32:59;6.10;;;2.60;;
18772;SDS011;9515;50.810;4.418;2022-09-06T07:35:25;7.60;;;2.30;;
18772;SDS011;9515;50.810;4.418;2022-09-06T07:37:51;5.07;;;2.30;;
18772;SDS011;9515;50.810;4.418;2022-09-06T07:40:18;5.10;;;2.45;;
18772;SDS011;9515;50.810;4.418;2022-09-06T07:42:44;4.05;;;2.20;;
18772;SDS011;9515;50.810;4.418;2022-09-06T07:45:09;4.75;;;2.00;;
18772;SDS011;9515;50.810;4.418;2022-09-06T07:47:35;3.90;;;2.00;;
18772;SDS011;9515;50.810;4.418;2022-09-06T07:50:02;3.65;;;2.05;;
18772;SDS011;9515;50.810;4.418;2022-09-06T07:52:28;4.57;;;1.90;;
18772;SDS011;9515;50.810;4.418;2022-09-06T07:54:54;3.95;;;1.80;;
18772;SDS011;9515;50.810;4.418;2022-09-06T07:57:20;2.88;;;2.20;;
18772;SDS011;9515;50.810;4.418;2022-09-06T07:59:47;4.43;;;2.13;;
18772;SDS011;9515;50.810;4.418;2022-09-06T08:02:13;5.80;;;2.10;;
18772;SDS011;9515;50.810;4.418;2022-09-06T08:04:40;3.75;;;2.10;;
18772;SDS011;9515;50.810;4.418;2022-09-06T08:07:06;6.80;;;2.10;;
18772;SDS011;9515;50.810;4.418;2022-09-06T08:09:32;4.90;;;2.30;;
18772;SDS011;9515;50.810;4.418;2022-09-06T08:11:58;4.55;;;2.65;;
18772;SDS011;9515;50.810;4.418;2022-09-06T08:14:30;3.03;;;2.13;;
18772;SDS011;9515;50.810;4.418;2022-09-06T08:16:59;4.10;;;2.38;;
18772;SDS011;9515;50.810;4.418;2022-09-06T08:19:25;7.88;;;2.50;;
18772;SDS011;9515;50.810;4.418;2022-09-06T08:21:52;8.45;;;2.60;;
18772;SDS011;9515;50.810;4.418;2022-09-06T08:24:19;5.28;;;2.60;;
18772;SDS011;9515;50.810;4.418;2022-09-06T08:26:45;8.10;;;2.70;;
18772;SDS011;9515;50.810;4.418;2022-09-06T08:29:11;5.03;;;2.50;;
18772;SDS011;9515;50.810;4.418;2022-09-06T08:31:38;5.05;;;2.60;;
18772;SDS011;9515;50.810;4.418;2022-09-06T08:34:06;4.72;;;2.92;;
18772;SDS011;9515;50.810;4.418;2022-09-06T08:36:32;4.28;;;2.35;;
18772;SDS011;9515;50.810;4.418;2022-09-06T08:38:59;7.60;;;2.50;;
18772;SDS011;9515;50.810;4.418;2022-09-06T08:44:11;5.00;;;2.38;;
18772;SDS011;9515;50.810;4.418;2022-09-06T08:46:41;4.00;;;2.45;;
18772;SDS011;9515;50.810;4.418;2022-09-06T08:49:19;5.68;;;2.75;;
18772;SDS011;9515;50.810;4.418;2022-09-06T08:54:36;3.17;;;2.80;;
18772;SDS011;9515;50.810;4.418;2022-09-06T09:00:19;3.10;;;2.80;;
18772;SDS011;9515;50.810;4.418;2022-09-06T09:02:50;4.78;;;2.65;;
18772;SDS011;9515;50.810;4.418;2022-09-06T09:05:29;6.95;;;3.03;;
18772;SDS011;9515;50.810;4.418;2022-09-06T09:07:59;8.25;;;2.72;;
18772;SDS011;9515;50.810;4.418;2022-09-06T09:10:53;5.53;;;2.92;;
18772;SDS011;9515;50.810;4.418;2022-09-06T09:16:15;8.15;;;3.83;;
18772;SDS011;9515;50.810;4.418;2022-09-06T09:18:42;3.72;;;2.88;;
18772;SDS011;9515;50.810;4.418;2022-09-06T09:21:11;5.95;;;3.50;;
18772;SDS011;9515;50.810;4.418;2022-09-06T09:23:39;9.32;;;4.25;;
18772;SDS011;9515;50.810;4.418;2022-09-06T09:26:08;6.32;;;3.10;;
18772;SDS011;9515;50.810;4.418;2022-09-06T09:28:36;4.80;;;3.20;;
18772;SDS011;9515;50.810;4.418;2022-09-06T09:31:01;6.20;;;3.40;;
18772;SDS011;9515;50.810;4.418;2022-09-06T09:33:28;5.40;;;3.45;;
18772;SDS011;9515;50.810;4.418;2022-09-06T09:35:58;7.63;;;3.67;;
18772;SDS011;9515;50.810;4.418;2022-09-06T09:38:45;14.20;;;4.43;;
18772;SDS011;9515;50.810;4.418;2022-09-06T09:41:32;8.73;;;4.07;;
18772;SDS011;9515;50.810;4.418;2022-09-06T09:44:01;5.53;;;4.10;;
18772;SDS011;9515;50.810;4.418;2022-09-06T09:46:32;11.40;;;4.70;;
18772;SDS011;9515;50.810;4.418;2022-09-06T09:49:04;14.10;;;5.03;;
18772;SDS011;9515;50.810;4.418;2022-09-06T09:51:34;9.50;;;4.80;;
18772;SDS011;9515;50.810;4.418;2022-09-06T09:54:11;7.70;;;4.25;;
18772;SDS011;9515;50.810;4.418;2022-09-06T09:59:17;8.20;;;4.50;;
18772;SDS011;9515;50.810;4.418;2022-09-06T10:01:46;8.05;;;4.00;;
18772;SDS011;9515;50.810;4.418;2022-09-06T10:04:17;6.68;;;3.42;;
18772;SDS011;9515;50.810;4.418;2022-09-06T10:06:58;5.53;;;4.18;;
18772;SDS011;9515;50.810;4.418;2022-09-06T10:09:59;8.18;;;3.28;;
18772;SDS011;9515;50.810;4.418;2022-09-06T10:12:38;9.05;;;3.25;;
18772;SDS011;9515;50.810;4.418;2022-09-06T10:15:09;4.75;;;2.70;;
18772;SDS011;9515;50.810;4.418;2022-09-06T10:20:15;3.85;;;2.65;;
18772;SDS011;9515;50.810;4.418;2022-09-06T10:22:57;3.78;;;2.45;;
18772;SDS011;9515;50.810;4.418;2022-09-06T10:39:21;5.80;;;2.42;;
18772;SDS011;9515;50.810;4.418;2022-09-06T10:45:09;5.85;;;2.40;;
18772;SDS011;9515;50.810;4.418;2022-09-06T10:48:28;4.00;;;2.03;;
18772;SDS011;9515;50.810;4.418;2022-09-06T10:53:15;4.85;;;1.90;;
18772;SDS011;9515;50.810;4.418;2022-09-06T10:55:42;3.78;;;2.35;;
18772;SDS011;9515;50.810;4.418;2022-09-06T10:58:13;3.70;;;2.20;;
18772;SDS011;9515;50.810;4.418;2022-09-06T11:00:47;17.25;;;3.20;;
18772;SDS011;9515;50.810;4.418;2022-09-06T11:03:17;6.20;;;2.33;;
18772;SDS011;9515;50.810;4.418;2022-09-06T11:05:52;2.03;;;1.70;;
18772;SDS011;9515;50.810;4.418;2022-09-06T11:08:24;1.95;;;1.65;;
18772;SDS011;9515;50.810;4.418;2022-09-06T11:10:58;5.35;;;2.00;;
18772;SDS011;9515;50.810;4.418;2022-09-06T11:13:30;3.33;;;2.20;;
18772;SDS011;9515;50.810;4.418;2022-09-06T11:24:11;6.70;;;2.53;;
18772;SDS011;9515;50.810;4.418;2022-09-06T11:29:28;3.20;;;1.85;;
18772;SDS011;9515;50.810;4.418;2022-09-06T11:31:57;4.15;;;1.90;;
18772;SDS011;9515;50.810;4.418;2022-09-06T11:34:29;2.40;;;2.00;;
18772;SDS011;9515;50.810;4.418;2022-09-06T11:47:39;3.78;;;1.90;;
18772;SDS011;9515;50.810;4.418;2022-09-06T11:55:19;4.43;;;2.05;;
18772;SDS011;9515;50.810;4.418;2022-09-06T11:57:52;2.78;;;1.80;;
18772;SDS011;9515;50.810;4.418;2022-09-06T12:00:20;4.50;;;1.98;;
18772;SDS011;9515;50.810;4.418;2022-09-06T12:02:48;3.20;;;2.13;;
18772;SDS011;9515;50.810;4.418;2022-09-06T12:05:17;7.28;;;2.28;;
18772;SDS011;9515;50.810;4.418;2022-09-06T12:28:05;3.20;;;1.65;;
18772;SDS011;9515;50.810;4.418;2022-09-06T12:30:37;5.72;;;2.00;;
18772;SDS011;9515;50.810;4.418;2022-09-06T12:33:07;6.25;;;5.65;;
18772;SDS011;9515;50.810;4.418;2022-09-06T12:35:42;5.90;;;2.72;;
18772;SDS011;9515;50.810;4.418;2022-09-06T12:38:11;4.53;;;1.80;;
18772;SDS011;9515;50.810;4.418;2022-09-06T12:40:46;2.50;;;1.80;;
18772;SDS011;9515;50.810;4.418;2022-09-06T12:43:15;4.40;;;1.90;;
18772;SDS011;9515;50.810;4.418;2022-09-06T12:45:45;3.00;;;1.60;;
18772;SDS011;9515;50.810;4.418;2022-09-06T12:48:24;2.85;;;1.90;;
18772;SDS011;9515;50.810;4.418;2022-09-06T12:53:30;5.53;;;2.22;;
18772;SDS011;9515;50.810;4.418;2022-09-06T12:56:02;5.35;;;1.80;;
18772;SDS011;9515;50.810;4.418;2022-09-06T12:58:28;1.70;;;1.60;;
18772;SDS011;9515;50.810;4.418;2022-09-06T13:00:54;4.50;;;1.70;;
18772;SDS011;9515;50.810;4.418;2022-09-06T13:06:06;5.32;;;2.05;;
18772;SDS011;9515;50.810;4.418;2022-09-06T13:08:35;3.28;;;1.90;;
18772;SDS011;9515;50.810;4.418;2022-09-06T13:11:07;4.60;;;2.15;;
18772;SDS011;9515;50.810;4.418;2022-09-06T13:13:35;7.05;;;2.03;;
18772;SDS011;9515;50.810;4.418;2022-09-06T13:16:01;4.82;;;2.30;;
18772;SDS011;9515;50.810;4.418;2022-09-06T13:21:06;4.90;;;2.08;;
18772;SDS011;9515;50.810;4.418;2022-09-06T13:23:46;7.43;;;2.40;;
18772;SDS011;9515;50.810;4.418;2022-09-06T13:26:13;6.60;;;1.98;;
18772;SDS011;9515;50.810;4.418;2022-09-06T13:28:40;3.22;;;1.73;;
18772;SDS011;9515;50.810;4.418;2022-09-06T13:33:33;6.43;;;2.08;;
18772;SDS011;9515;50.810;4.418;2022-09-06T13:43:56;4.65;;;1.88;;
18772;SDS011;9515;50.810;4.418;2022-09-06T13:46:23;2.17;;;1.90;;
18772;SDS011;9515;50.810;4.418;2022-09-06T13:48:49;3.63;;;1.80;;
18772;SDS011;9515;50.810;4.418;2022-09-06T13:51:17;3.17;;;1.80;;
18772;SDS011;9515;50.810;4.418;2022-09-06T13:53:43;5.53;;;1.85;;
18772;SDS011;9515;50.810;4.418;2022-09-06T13:56:09;5.00;;;2.00;;
18772;SDS011;9515;50.810;4.418;2022-09-06T13:58:35;2.65;;;2.10;;
18772;SDS011;9515;50.810;4.418;2022-09-06T14:01:01;3.53;;;1.95;;
18772;SDS011;9515;50.810;4.418;2022-09-06T14:03:29;5.72;;;1.98;;
18772;SDS011;9515;50.810;4.418;2022-09-06T14:05:56;5.40;;;2.08;;
18772;SDS011;9515;50.810;4.418;2022-09-06T14:08:23;3.40;;;2.10;;
18772;SDS011;9515;50.810;4.418;2022-09-06T14:10:49;3.42;;;1.65;;
18772;SDS011;9515;50.810;4.418;2022-09-06T14:13:15;5.38;;;1.88;;
18772;SDS011;9515;50.810;4.418;2022-09-06T14:15:42;2.10;;;1.70;;
18772;SDS011;9515;50.810;4.418;2022-09-06T14:18:09;4.57;;;1.83;;
18772;SDS011;9515;50.810;4.418;2022-09-06T14:20:35;3.55;;;1.92;;
18772;SDS011;9515;50.810;4.418;2022-09-06T14:23:01;5.28;;;2.75;;
18772;SDS011;9515;50.810;4.418;2022-09-06T14:25:27;6.15;;;2.00;;
18772;SDS011;9515;50.810;4.418;2022-09-06T14:27:53;9.07;;;2.17;;
18772;SDS011;9515;50.810;4.418;2022-09-06T14:30:18;3.20;;;1.77;;
18772;SDS011;9515;50.810;4.418;2022-09-06T14:32:44;4.80;;;2.15;;
18772;SDS011;9515;50.810;4.418;2022-09-06T14:35:10;4.32;;;2.15;;
18772;SDS011;9515;50.810;4.418;2022-09-06T14:37:35;7.47;;;6.03;;
18772;SDS011;9515;50.810;4.418;2022-09-06T14:40:01;3.47;;;3.17;;
18772;SDS011;9515;50.810;4.418;2022-09-06T14:42:28;3.20;;;2.00;;
18772;SDS011;9515;50.810;4.418;2022-09-06T14:44:54;4.55;;;1.52;;
18772;SDS011;9515;50.810;4.418;2022-09-06T14:47:20;2.80;;;1.70;;
18772;SDS011;9515;50.810;4.418;2022-09-06T14:49:46;4.18;;;1.63;;
18772;SDS011;9515;50.810;4.418;2022-09-06T14:52:11;7.03;;;1.95;;
18772;SDS011;9515;50.810;4.418;2022-09-06T14:54:37;8.27;;;2.38;;
18772;SDS011;9515;50.810;4.418;2022-09-06T14:57:03;2.47;;;1.70;;
18772;SDS011;9515;50.810;4.418;2022-09-06T14:59:29;3.70;;;1.63;;
18772;SDS011;9515;50.810;4.418;2022-09-06T15:01:54;7.43;;;2.00;;
18772;SDS011;9515;50.810;4.418;2022-09-06T15:04:21;11.52;;;2.38;;
18772;SDS011;9515;50.810;4.418;2022-09-06T15:06:46;4.45;;;2.30;;
18772;SDS011;9515;50.810;4.418;2022-09-06T15:09:13;6.07;;;2.10;;
18772;SDS011;9515;50.810;4.418;2022-09-06T15:11:46;7.95;;;2.30;;
18772;SDS011;9515;50.810;4.418;2022-09-06T15:14:14;2.45;;;2.10;;
18772;SDS011;9515;50.810;4.418;2022-09-06T15:16:45;4.85;;;2.17;;
18772;SDS011;9515;50.810;4.418;2022-09-06T15:19:11;4.47;;;1.90;;
18772;SDS011;9515;50.810;4.418;2022-09-06T15:21:39;6.65;;;1.80;;
18772;SDS011;9515;50.810;4.418;2022-09-06T15:24:06;5.40;;;1.92;;
18772;SDS011;9515;50.810;4.418;2022-09-06T15:26:32;6.25;;;1.95;;
18772;SDS011;9515;50.810;4.418;2022-09-06T15:29:02;7.07;;;2.30;;
18772;SDS011;9515;50.810;4.418;2022-09-06T15:31:28;5.65;;;2.30;;
18772;SDS011;9515;50.810;4.418;2022-09-06T15:33:57;7.22;;;2.10;;
18772;SDS011;9515;50.810;4.418;2022-09-06T15:36:25;3.92;;;1.70;;
18772;SDS011;9515;50.810;4.418;2022-09-06T15:38:52;8.52;;;2.20;;
18772;SDS011;9515;50.810;4.418;2022-09-06T15:41:20;8.05;;;2.35;;
18772;SDS011;9515;50.810;4.418;2022-09-06T15:43:58;8.15;;;2.70;;
18772;SDS011;9515;50.810;4.418;2022-09-06T15:46:39;6.60;;;2.22;;
18772;SDS011;9515;50.810;4.418;2022-09-06T15:49:11;7.90;;;2.50;;
18772;SDS011;9515;50.810;4.418;2022-09-06T15:51:48;5.50;;;2.50;;
18772;SDS011;9515;50.810;4.418;2022-09-06T15:54:15;5.10;;;2.60;;
18772;SDS011;9515;50.810;4.418;2022-09-06T15:56:42;6.15;;;2.80;;
18772;SDS011;9515;50.810;4.418;2022-09-06T15:59:09;10.23;;;2.80;;
18772;SDS011;9515;50.810;4.418;2022-09-06T16:01:35;8.95;;;2.60;;
18772;SDS011;9515;50.810;4.418;2022-09-06T16:04:01;8.32;;;2.20;;
18772;SDS011;9515;50.810;4.418;2022-09-06T16:06:38;7.28;;;2.63;;
18772;SDS011;9515;50.810;4.418;2022-09-06T16:09:09;6.90;;;2.80;;
18772;SDS011;9515;50.810;4.418;2022-09-06T16:11:38;8.50;;;3.20;;
18772;SDS011;9515;50.810;4.418;2022-09-06T16:14:04;7.15;;;3.05;;
18772;SDS011;9515;50.810;4.418;2022-09-06T16:16:31;5.28;;;2.20;;
18772;SDS011;9515;50.810;4.418;2022-09-06T16:18:58;3.15;;;2.60;;
18772;SDS011;9515;50.810;4.418;2022-09-06T16:21:25;4.57;;;2.53;;
18772;SDS011;9515;50.810;4.418;2022-09-06T16:24:03;8.98;;;2.83;;
18772;SDS011;9515;50.810;4.418;2022-09-06T16:26:32;13.02;;;3.10;;
18772;SDS011;9515;50.810;4.418;2022-09-06T16:29:01;3.72;;;2.80;;
18772;SDS011;9515;50.810;4.418;2022-09-06T16:31:27;6.90;;;2.55;;
18772;SDS011;9515;50.810;4.418;2022-09-06T16:33:54;6.28;;;2.65;;
18772;SDS011;9515;50.810;4.418;2022-09-06T16:36:21;2.80;;;2.47;;
18772;SDS011;9515;50.810;4.418;2022-09-06T16:38:47;6.07;;;2.45;;
18772;SDS011;9515;50.810;4.418;2022-09-06T16:41:15;6.03;;;2.40;;
18772;SDS011;9515;50.810;4.418;2022-09-06T16:43:46;6.82;;;2.40;;
18772;SDS011;9515;50.810;4.418;2022-09-06T16:46:14;5.93;;;2.10;;
18772;SDS011;9515;50.810;4.418;2022-09-06T16:48:40;4.43;;;2.10;;
18772;SDS011;9515;50.810;4.418;2022-09-06T16:53:35;6.03;;;2.50;;
18772;SDS011;9515;50.810;4.418;2022-09-06T16:56:03;9.85;;;2.63;;
18772;SDS011;9515;50.810;4.418;2022-09-06T16:58:29;5.10;;;2.45;;
18772;SDS011;9515;50.810;4.418;2022-09-06T17:00:55;4.57;;;2.13;;
18772;SDS011;9515;50.810;4.418;2022-09-06T17:03:20;6.32;;;2.13;;
18772;SDS011;9515;50.810;4.418;2022-09-06T17:05:49;5.45;;;2.25;;
18772;SDS011;9515;50.810;4.418;2022-09-06T17:08:16;5.43;;;2.38;;
18772;SDS011;9515;50.810;4.418;2022-09-06T17:10:42;6.80;;;2.40;;
18772;SDS011;9515;50.810;4.418;2022-09-06T17:13:08;6.38;;;2.50;;
18772;SDS011;9515;50.810;4.418;2022-09-06T17:15:35;12.05;;;3.08;;
18772;SDS011;9515;50.810;4.418;2022-09-06T17:18:19;8.05;;;2.35;;
18772;SDS011;9515;50.810;4.418;2022-09-06T17:20:58;8.15;;;3.10;;
18772;SDS011;9515;50.810;4.418;2022-09-06T17:23:29;7.72;;;2.58;;
18772;SDS011;9515;50.810;4.418;2022-09-06T17:25:55;3.42;;;2.38;;
18772;SDS011;9515;50.810;4.418;2022-09-06T17:28:21;6.68;;;2.63;;
18772;SDS011;9515;50.810;4.418;2022-09-06T17:30:48;5.70;;;2.72;;
18772;SDS011;9515;50.810;4.418;2022-09-06T17:33:16;6.03;;;2.92;;